Time;durP1;ratioP1;P1;durP2;ratioP2;P2;SDS_P1;SDS_P2;PMS_P1;PMS_P2;Temp;Humidity;BMP_temperature;BMP_pressure;BME280_temperature;BME280_humidity;BME280_pressure;Samples;Min_cycle;Max_cycle;Signal;HPM_P1;HPM_P2
2023/09/30 00:01:58;;;;;;;9.38;6.53;;;;;;;10.60;73.43;96653.91;6317503;28;20406;-69
2023/09/30 00:05:06;;;;;;;9.18;6.35;;;;;;;10.60;73.39;96643.38;6318957;28;20043;-70
2023/09/30 00:08:08;;;;;;;10.23;6.43;;;;;;;10.67;73.27;96651.69;6318489;28;20056;-70
2023/09/30 00:11:09;;;;;;;10.80;6.30;;;;;;;10.61;73.29;96645.06;6319098;28;20040;-69
2023/09/30 00:14:18;;;;;;;10.77;6.53;;;;;;;10.73;73.00;96667.91;6319146;28;20044;-69
2023/09/30 00:17:21;;;;;;;10.32;5.85;;;;;;;10.72;72.95;96666.19;6317816;28;20040;-69
2023/09/30 00:20:25;;;;;;;10.18;6.03;;;;;;;10.72;72.78;96668.00;6319081;28;20044;-69
2023/09/30 00:23:27;;;;;;;11.25;5.97;;;;;;;10.70;72.84;96665.50;6318975;28;20860;-69
2023/09/30 00:26:31;;;;;;;9.30;5.70;;;;;;;10.69;72.83;96669.06;6318501;28;20074;-69
2023/09/30 00:29:36;;;;;;;9.60;5.88;;;;;;;10.70;72.93;96668.13;6319051;28;20051;-69
2023/09/30 00:32:39;;;;;;;9.02;5.75;;;;;;;10.69;73.13;96669.06;6319114;28;20543;-69
2023/09/30 00:35:48;;;;;;;8.48;5.55;;;;;;;10.67;73.37;96673.59;6319199;28;20062;-69
2023/09/30 00:38:52;;;;;;;9.05;6.13;;;;;;;10.65;73.84;96674.66;6318323;28;20044;-69
2023/09/30 00:42:00;;;;;;;7.38;5.13;;;;;;;10.71;73.45;96680.31;6318501;28;20509;-69
2023/09/30 00:45:06;;;;;;;8.82;6.40;;;;;;;10.70;73.15;96680.41;6318839;28;20040;-69
2023/09/30 00:48:08;;;;;;;6.97;6.07;;;;;;;10.74;72.95;96681.91;6317134;28;20055;-69
2023/09/30 00:51:11;;;;;;;10.52;7.05;;;;;;;10.72;72.75;96689.88;6319423;28;20040;-69
2023/09/30 00:54:15;;;;;;;14.35;7.97;;;;;;;10.78;72.50;96692.13;6318838;28;20044;-69
2023/09/30 00:57:20;;;;;;;11.77;7.53;;;;;;;10.77;72.46;96687.78;6318197;28;20086;-69
2023/09/30 01:00:25;;;;;;;13.15;7.45;;;;;;;10.84;72.23;96687.38;6300345;28;20048;-69
2023/09/30 01:03:34;;;;;;;12.18;6.72;;;;;;;10.83;72.23;96691.78;6317173;28;20118;-69
2023/09/30 01:06:38;;;;;;;11.38;6.82;;;;;;;10.87;72.26;96693.28;6317789;28;20054;-69
2023/09/30 01:09:46;;;;;;;10.00;6.63;;;;;;;10.90;72.41;96695.69;6318516;28;20040;-69
2023/09/30 01:12:49;;;;;;;8.77;6.30;;;;;;;10.89;72.65;96691.38;6318573;28;20040;-69
2023/09/30 01:15:58;;;;;;;10.73;6.45;;;;;;;10.96;72.72;96700.53;6318335;28;20035;-69
2023/09/30 01:19:00;;;;;;;10.20;6.43;;;;;;;10.97;72.64;96709.28;6318508;28;20047;-69
2023/09/30 01:22:05;;;;;;;8.73;5.95;;;;;;;10.99;72.62;96708.22;6320994;28;20048;-69
2023/09/30 01:25:09;;;;;;;10.23;6.00;;;;;;;11.00;72.56;96709.91;6325535;28;20063;-69
2023/09/30 01:28:14;;;;;;;7.82;5.97;;;;;;;11.00;72.65;96698.53;6322695;28;20043;-69
2023/09/30 01:31:16;;;;;;;10.02;5.63;;;;;;;11.05;72.69;96712.22;6322070;28;20043;-69
2023/09/30 01:34:17;;;;;;;11.10;6.15;;;;;;;11.08;72.57;96704.09;6322213;28;20417;-69
2023/09/30 01:37:21;;;;;;;9.52;6.45;;;;;;;11.09;72.44;96700.50;6320620;28;20166;-69
2023/09/30 01:40:22;;;;;;;11.60;6.13;;;;;;;11.12;72.48;96712.63;6322004;28;20048;-68
2023/09/30 01:43:29;;;;;;;;;;;;;;;11.13;72.69;96712.53;6322770;28;20048;-68
2023/09/30 01:46:33;;;;;;;7.75;5.47;;;;;;;11.14;72.36;96716.00;6322019;28;19919;-70
2023/09/30 01:49:35;;;;;;;10.63;6.30;;;;;;;11.17;72.47;96716.63;6322403;28;20067;-69
2023/09/30 01:52:40;;;;;;;9.20;6.25;;;;;;;11.17;72.66;96711.34;6320362;28;20150;-69
2023/09/30 01:55:44;;;;;;;11.50;6.90;;;;;;;11.19;72.81;96714.72;6321703;28;20162;-70
2023/09/30 01:58:51;;;;;;;9.38;6.07;;;;;;;11.22;72.82;96717.16;6322051;28;20119;-70
2023/09/30 02:01:53;;;;;;;7.85;5.70;;;;;;;11.29;72.93;96729.88;6322094;28;20159;-70
2023/09/30 02:04:57;;;;;;;10.07;7.25;;;;;;;11.32;72.78;96725.25;6321710;28;20055;-70
2023/09/30 02:08:05;;;;;;;11.10;6.35;;;;;;;11.33;72.61;96731.38;6322081;28;20050;-70
2023/09/30 02:11:13;;;;;;;11.15;6.80;;;;;;;11.35;72.26;96734.72;6321182;28;20516;-70
2023/09/30 02:14:17;;;;;;;14.10;6.28;;;;;;;11.35;72.26;96732.09;6321648;28;20040;-70
2023/09/30 02:17:22;;;;;;;8.43;6.00;;;;;;;11.36;71.94;96737.25;6320990;28;20051;-70
2023/09/30 02:20:30;;;;;;;9.60;5.35;;;;;;;11.36;71.79;96746.97;6321722;28;20040;-70
2023/09/30 02:23:39;;;;;;;7.72;5.15;;;;;;;11.32;71.62;96729.66;6321262;28;20390;-70
2023/09/30 02:26:43;;;;;;;9.32;5.28;;;;;;;11.39;71.47;96744.13;6320309;28;20048;-70
2023/09/30 02:29:47;;;;;;;8.75;4.97;;;;;;;11.36;71.30;96745.16;6320820;28;20528;-70
2023/09/30 02:32:51;;;;;;;5.88;4.53;;;;;;;11.36;71.29;96749.59;6320736;28;20052;-70
2023/09/30 02:35:59;;;;;;;6.18;4.53;;;;;;;11.32;71.16;96750.75;6321328;28;20044;-70
2023/09/30 02:39:03;;;;;;;9.25;5.47;;;;;;;11.29;71.20;96756.22;6321491;28;20525;-70
2023/09/30 02:42:10;;;;;;;7.65;4.80;;;;;;;11.28;71.08;96751.91;6321051;28;20040;-70
2023/09/30 02:45:11;;;;;;;;;;;;;;;11.31;71.32;96759.59;6320673;28;20056;-70
2023/09/30 02:48:17;;;;;;;17.13;10.77;;;;;;;11.28;71.03;96760.66;6321071;28;19915;-69
2023/09/30 02:51:19;;;;;;;13.88;7.63;;;;;;;11.34;71.22;96769.94;6320628;28;20450;-69
2023/09/30 02:54:24;;;;;;;;;;;;;;;11.35;71.04;96771.59;6319732;28;20075;-69
2023/09/30 02:57:29;;;;;;;11.43;6.60;;;;;;;11.28;71.17;96759.81;6320536;28;19922;-70
2023/09/30 03:00:32;;;;;;;8.02;5.43;;;;;;;11.37;71.30;96780.25;6320141;28;20044;-70
2023/09/30 03:03:36;;;;;;;11.60;5.57;;;;;;;11.38;71.45;96782.78;6320668;28;20044;-70
2023/09/30 03:06:42;;;;;;;10.85;5.28;;;;;;;11.42;71.57;96780.78;6321810;28;20048;-69
2023/09/30 03:09:43;;;;;;;10.55;6.03;;;;;;;11.44;71.60;96786.78;6320914;28;20173;-69
2023/09/30 03:12:50;;;;;;;8.77;5.65;;;;;;;11.49;71.50;96795.19;6320329;28;20051;-69
2023/09/30 03:15:56;;;;;;;13.63;6.40;;;;;;;11.47;71.27;96786.56;6320353;28;20043;-69
2023/09/30 03:18:58;;;;;;;11.65;7.13;;;;;;;11.50;71.31;96791.63;6319554;28;20063;-69
2023/09/30 03:21:59;;;;;;;13.65;7.25;;;;;;;11.51;71.38;96801.22;6319628;28;20532;-70
2023/09/30 03:25:00;;;;;;;12.20;7.32;;;;;;;11.50;71.48;96802.16;6318412;28;20048;-70
2023/09/30 03:28:12;;;;;;;15.23;8.68;;;;;;;11.44;71.70;96807.88;6320138;28;20044;-70
2023/09/30 03:31:20;;;;;;;15.98;8.90;;;;;;;11.44;72.24;96807.88;6318215;28;20060;-70
2023/09/30 03:34:22;;;;;;;11.73;7.45;;;;;;;11.44;72.55;96818.41;6319343;28;20501;-70
2023/09/30 03:37:27;;;;;;;13.18;7.35;;;;;;;11.45;72.87;96820.91;6319775;28;20559;-69
2023/09/30 03:40:33;;;;;;;12.63;7.00;;;;;;;11.49;72.56;96816.28;6319460;28;20079;-69
2023/09/30 03:43:40;;;;;;;9.68;6.57;;;;;;;11.55;72.73;96826.41;6318912;28;20040;-69
2023/09/30 03:46:42;;;;;;;11.32;7.72;;;;;;;11.50;72.80;96807.44;6318126;28;20421;-69
2023/09/30 03:49:48;;;;;;;12.68;8.27;;;;;;;11.61;72.79;96828.63;6323897;28;20040;-69
2023/09/30 03:53:01;;;;;;;16.90;9.30;;;;;;;11.67;73.64;96828.19;6319506;28;20058;-69
2023/09/30 03:56:02;;;;;;;15.75;9.68;;;;;;;11.64;73.67;96836.31;6318929;28;20051;-69
2023/09/30 03:59:08;;;;;;;28.10;18.58;;;;;;;11.58;74.16;96841.16;6319334;28;20051;-70
2023/09/30 04:02:14;;;;;;;15.85;11.60;;;;;;;11.51;74.33;96838.09;6318158;28;20050;-69
2023/09/30 04:05:29;;;;;;;18.52;12.15;;;;;;;11.48;74.78;96837.47;6320226;28;20056;-69
2023/09/30 04:08:33;;;;;;;20.17;11.60;;;;;;;11.48;74.80;96846.22;6321004;28;20406;-69
2023/09/30 04:11:38;;;;;;;22.42;13.85;;;;;;;11.44;75.21;96850.88;6320634;28;20457;-69
2023/09/30 04:14:39;;;;;;;32.65;16.33;;;;;;;11.40;75.38;96845.91;6320335;28;20055;-68
2023/09/30 04:17:48;;;;;;;26.45;16.85;;;;;;;11.35;75.62;96851.50;6319415;28;20546;-68
2023/09/30 04:20:55;;;;;;;37.88;21.25;;;;;;;11.30;76.21;96847.50;6319839;28;20416;-69
2023/09/30 04:23:59;;;;;;;36.53;20.42;;;;;;;11.28;76.58;96852.84;6320012;28;20158;-71
2023/09/30 04:27:04;;;;;;;36.13;20.10;;;;;;;11.26;76.84;96856.53;6317907;28;20054;-70
2023/09/30 04:30:09;;;;;;;40.60;24.75;;;;;;;11.28;77.26;96850.22;6318969;28;20044;-71
2023/09/30 04:33:12;;;;;;;23.52;16.52;;;;;;;11.31;77.39;96859.69;6318508;28;20040;-69
2023/09/30 04:36:14;;;;;;;27.27;15.60;;;;;;;11.28;77.49;96855.47;6319140;28;20128;-69
2023/09/30 04:39:18;;;;;;;18.67;13.13;;;;;;;11.27;77.77;96858.25;6318959;28;20035;-71
2023/09/30 04:42:25;;;;;;;;;;;;;;;11.32;78.34;96864.00;6317991;28;20043;-70
2023/09/30 04:45:27;;;;;;;;;;;;;;;11.38;77.96;96871.50;6318671;28;19920;-69
2023/09/30 04:48:32;;;;;;;14.60;9.17;;;;;;;11.49;77.32;96873.41;6317649;28;19919;-69
2023/09/30 04:51:35;;;;;;;14.25;9.00;;;;;;;11.62;77.49;96869.81;6319013;28;20044;-69
2023/09/30 04:54:40;;;;;;;11.98;9.27;;;;;;;11.80;77.46;96874.75;6319364;28;20056;-70
2023/09/30 04:57:47;;;;;;;14.15;7.40;;;;;;;11.87;77.28;96873.44;6323546;28;20456;-69
2023/09/30 05:00:54;;;;;;;15.10;10.07;;;;;;;11.96;77.06;96883.31;6323162;28;20424;-69
2023/09/30 05:03:57;;;;;;;10.82;8.02;;;;;;;11.94;77.15;96887.00;6322652;28;20048;-71
2023/09/30 05:07:03;;;;;;;16.30;11.63;;;;;;;11.83;77.25;96887.72;6323118;28;20048;-70
2023/09/30 05:10:07;;;;;;;19.13;14.57;;;;;;;11.65;76.98;96888.06;6321720;28;20047;-69
2023/09/30 05:13:16;;;;;;;24.52;16.45;;;;;;;11.55;77.15;96887.03;6323209;28;20044;-69
2023/09/30 05:16:18;;;;;;;22.65;16.10;;;;;;;11.49;77.31;96890.06;6322863;28;20048;-69
2023/09/30 05:19:20;;;;;;;27.05;17.83;;;;;;;11.55;77.31;96883.50;6322710;28;20044;-70
2023/09/30 05:22:26;;;;;;;35.15;21.75;;;;;;;11.64;76.73;96894.28;6322544;28;20044;-70
2023/09/30 05:25:31;;;;;;;27.95;17.88;;;;;;;11.68;76.95;96898.38;6322408;28;20138;-70
2023/09/30 05:28:34;;;;;;;22.88;16.90;;;;;;;11.48;76.83;96872.56;6322258;28;20162;-70
2023/09/30 05:31:36;;;;;;;22.17;15.30;;;;;;;11.67;76.81;96893.25;6321332;28;20468;-69
2023/09/30 05:34:40;;;;;;;29.77;17.48;;;;;;;11.76;77.00;96897.03;6322353;28;20044;-69
2023/09/30 05:37:43;;;;;;;;;;;;;;;11.92;76.93;96897.69;6322862;28;20094;-70
2023/09/30 05:40:44;;;;;;;25.13;16.77;;;;;;;12.11;76.02;96908.59;6322354;28;20135;-70
2023/09/30 05:43:45;;;;;;;26.42;17.02;;;;;;;12.28;75.41;96903.94;6320612;28;20071;-68
2023/09/30 05:46:47;;;;;;;32.05;20.65;;;;;;;12.41;75.03;96904.75;6322010;28;20055;-68
2023/09/30 05:49:48;;;;;;;23.88;18.13;;;;;;;12.56;74.45;96916.00;6322127;28;20441;-70
2023/09/30 05:52:53;;;;;;;22.17;17.95;;;;;;;12.71;74.14;96911.41;6321774;28;20051;-70
2023/09/30 05:55:57;;;;;;;24.10;16.27;;;;;;;12.76;73.43;96906.63;6321940;28;20048;-70
2023/09/30 05:58:58;;;;;;;;;;;;;;;12.96;73.57;96908.63;6322093;28;20488;-70
2023/09/30 06:02:02;;;;;;;20.73;13.35;;;;;;;12.99;72.59;96911.09;6321953;28;19926;-70
2023/09/30 06:05:06;;;;;;;18.33;13.38;;;;;;;12.96;72.57;96919.22;6321141;28;20047;-68
2023/09/30 06:08:13;;;;;;;21.88;14.43;;;;;;;12.88;72.67;96926.88;6321935;28;20036;-68
2023/09/30 06:11:32;;;;;;;22.58;13.65;;;;;;;12.80;72.82;96918.66;6321507;28;20044;-70
2023/09/30 06:14:36;;;;;;;17.75;13.00;;;;;;;12.72;72.96;96921.03;6321575;28;20465;-68
2023/09/30 06:17:37;;;;;;;21.75;13.80;;;;;;;12.77;73.22;96926.81;6320803;28;20048;-68
2023/09/30 06:20:42;;;;;;;18.65;12.80;;;;;;;12.90;73.14;96930.22;6321286;28;20063;-70
2023/09/30 06:23:48;;;;;;;14.73;12.15;;;;;;;13.10;72.70;96917.34;6321134;28;20498;-70
2023/09/30 06:26:53;;;;;;;19.67;13.68;;;;;;;13.27;72.07;96922.25;6321718;28;20541;-70
2023/09/30 06:29:55;;;;;;;15.73;11.33;;;;;;;13.47;71.89;96926.91;6321347;28;20185;-68
2023/09/30 06:33:04;;;;;;;15.82;9.57;;;;;;;13.47;71.11;96921.63;6321075;28;20051;-69
2023/09/30 06:36:10;;;;;;;14.98;9.85;;;;;;;13.44;71.00;96929.75;6320179;28;20059;-70
2023/09/30 06:39:17;;;;;;;16.50;9.80;;;;;;;13.33;70.94;96926.22;6321005;28;20040;-69
2023/09/30 06:42:24;;;;;;;12.60;8.45;;;;;;;13.30;70.45;96935.22;6320970;28;20101;-69
2023/09/30 06:45:26;;;;;;;11.93;8.07;;;;;;;13.24;70.46;96935.66;6320286;28;20413;-69
2023/09/30 06:48:30;;;;;;;13.35;7.70;;;;;;;13.22;70.23;96935.78;6320510;28;20048;-70
2023/09/30 06:51:34;;;;;;;14.93;7.90;;;;;;;13.32;69.92;96938.59;6320669;28;20044;-70
2023/09/30 06:54:38;;;;;;;13.65;9.40;;;;;;;13.45;69.34;96939.38;6320246;28;20044;-70
2023/09/30 06:57:45;;;;;;;17.63;11.65;;;;;;;13.58;68.65;96946.38;6320626;28;20125;-69
2023/09/30 07:00:56;;;;;;;16.52;11.65;;;;;;;13.74;67.96;96949.53;6320610;28;20569;-69
2023/09/30 07:04:01;;;;;;;17.95;13.07;;;;;;;13.78;66.95;96953.63;6320658;28;20055;-70
2023/09/30 07:07:04;;;;;;;14.25;9.25;;;;;;;13.66;67.07;96946.63;6319602;28;20121;-69
2023/09/30 07:10:08;;;;;;;7.90;5.55;;;;;;;13.53;67.14;96952.03;6320157;28;20055;-69
2023/09/30 07:13:10;;;;;;;7.78;5.97;;;;;;;13.39;67.18;96950.41;6319877;28;20131;-69
2023/09/30 07:16:13;;;;;;;7.35;5.40;;;;;;;13.26;67.36;96957.56;6319895;28;20071;-68
2023/09/30 07:19:14;;;;;;;8.40;5.75;;;;;;;13.20;66.74;96961.47;6301399;28;20552;-68
2023/09/30 07:22:20;;;;;;;8.35;5.50;;;;;;;13.19;66.72;96964.22;6319745;28;20117;-68
2023/09/30 07:25:24;;;;;;;6.75;4.97;;;;;;;13.19;66.41;96961.56;6319401;28;20127;-70
2023/09/30 07:28:25;;;;;;;11.05;5.40;;;;;;;13.27;66.17;96956.59;6319433;28;20044;-69
2023/09/30 07:31:32;;;;;;;7.00;4.80;;;;;;;13.33;66.06;96961.44;6318758;28;20070;-69
2023/09/30 07:34:39;;;;;;;6.78;4.50;;;;;;;13.52;65.75;96960.06;6318479;28;20047;-70
2023/09/30 07:37:42;;;;;;;7.20;4.43;;;;;;;13.67;65.82;96965.03;6319081;28;20048;-69
2023/09/30 07:40:43;;;;;;;12.98;8.88;;;;;;;13.81;66.27;96971.91;6318542;28;20036;-70
2023/09/30 07:43:47;;;;;;;11.52;5.75;;;;;;;14.11;65.41;96983.75;6318580;28;20048;-69
2023/09/30 07:46:54;;;;;;;7.93;5.43;;;;;;;14.22;65.13;96981.13;6319226;28;20159;-69
2023/09/30 07:49:57;;;;;;;9.75;6.03;;;;;;;14.41;65.19;96985.81;6319265;28;20043;-69
2023/09/30 07:53:01;;;;;;;13.30;7.50;;;;;;;14.60;64.59;96979.94;6319360;28;20106;-69
2023/09/30 07:56:03;;;;;;;12.32;7.00;;;;;;;14.87;63.87;96986.66;6318529;28;20555;-69
2023/09/30 07:59:05;;;;;;;12.98;5.93;;;;;;;15.15;62.94;96986.09;6318761;28;20051;-69
2023/09/30 08:02:09;;;;;;;7.47;4.75;;;;;;;15.59;62.19;96973.63;6319526;28;20040;-70
2023/09/30 08:05:11;;;;;;;;;;;;;;;16.21;61.47;96981.72;6318517;28;20060;-70
2023/09/30 08:08:15;;;;;;;5.75;3.78;;;;;;;17.13;58.32;96977.19;6318210;28;19919;-70
2023/09/30 08:11:20;;;;;;;5.25;3.92;;;;;;;17.90;55.11;96986.19;6319299;28;20044;-70
2023/09/30 08:14:22;;;;;;;5.22;4.10;;;;;;;18.21;53.57;97000.13;6319066;28;20063;-68
2023/09/30 08:17:29;;;;;;;5.97;4.15;;;;;;;18.37;52.37;96995.06;6318788;28;20052;-69
2023/09/30 08:20:36;;;;;;;7.13;3.78;;;;;;;19.44;50.30;96999.00;6318523;28;20051;-69
2023/09/30 08:23:38;;;;;;;5.95;4.07;;;;;;;19.47;49.47;96996.03;6318826;28;20044;-69
2023/09/30 08:26:43;;;;;;;4.57;3.20;;;;;;;19.29;49.36;97002.19;6318631;28;20528;-69
2023/09/30 08:29:45;;;;;;;4.47;3.03;;;;;;;18.89;49.43;97007.09;6322096;28;20039;-69
2023/09/30 08:32:46;;;;;;;5.57;3.60;;;;;;;18.28;50.54;97005.72;6324206;28;20032;-70
2023/09/30 08:35:50;;;;;;;8.48;4.47;;;;;;;17.94;51.48;97004.38;6323298;28;20050;-69
2023/09/30 08:38:52;;;;;;;8.02;4.30;;;;;;;17.91;51.91;97003.81;6322845;28;20040;-70
2023/09/30 08:41:56;;;;;;;7.30;4.47;;;;;;;17.87;51.11;97003.28;6323593;28;20427;-70
2023/09/30 08:45:00;;;;;;;8.57;4.70;;;;;;;17.85;50.73;96997.25;6323333;28;20048;-69
2023/09/30 08:48:05;;;;;;;10.63;6.15;;;;;;;17.84;50.29;97006.22;6321604;28;20142;-69
2023/09/30 08:51:09;;;;;;;7.57;5.28;;;;;;;17.79;50.80;97004.97;6323750;28;20119;-69
2023/09/30 08:54:11;;;;;;;7.00;4.68;;;;;;;17.74;50.76;97005.34;6323397;28;20052;-69
2023/09/30 08:57:19;;;;;;;5.93;4.18;;;;;;;17.67;50.86;97012.22;6321632;28;20505;-69
2023/09/30 09:00:26;;;;;;;5.15;3.60;;;;;;;17.74;51.12;97006.19;6323465;28;20040;-70
2023/09/30 09:03:31;;;;;;;4.97;3.88;;;;;;;17.80;50.24;97007.47;6323280;28;20040;-70
2023/09/30 09:06:35;;;;;;;6.88;4.10;;;;;;;17.62;50.47;97009.16;6322572;28;20051;-70
2023/09/30 09:09:36;;;;;;;5.53;4.20;;;;;;;17.38;51.18;97018.38;6323006;28;20067;-70
2023/09/30 09:12:39;;;;;;;7.03;4.30;;;;;;;17.16;51.78;97015.97;6322854;28;20048;-69
2023/09/30 09:15:41;;;;;;;8.40;5.47;;;;;;;17.02;51.90;97018.03;6322720;28;20051;-69
2023/09/30 09:18:42;;;;;;;5.95;4.28;;;;;;;16.91;51.21;97011.97;6322515;28;20063;-69
2023/09/30 09:22:00;;;;;;;6.75;4.47;;;;;;;16.71;51.37;97013.69;6322149;28;20170;-69
2023/09/30 09:25:02;;;;;;;4.60;3.67;;;;;;;16.59;51.61;97011.13;6321540;28;20059;-69
2023/09/30 09:28:11;;;;;;;5.10;3.60;;;;;;;16.46;51.83;97010.50;6323013;28;20079;-69
2023/09/30 09:31:28;;;;;;;6.80;4.38;;;;;;;16.35;51.43;97007.94;6322944;28;20044;-69
2023/09/30 09:34:29;;;;;;;12.35;4.05;;;;;;;16.37;51.74;97013.97;6322519;28;20052;-69
2023/09/30 09:37:33;;;;;;;4.65;3.72;;;;;;;16.35;51.76;97007.94;6321873;28;20417;-69
2023/09/30 09:40:38;;;;;;;6.63;4.55;;;;;;;16.43;51.45;97013.44;6321106;28;20048;-69
2023/09/30 09:43:43;;;;;;;12.48;5.22;;;;;;;16.40;51.93;97016.34;6322701;28;20611;-69
2023/09/30 09:46:50;;;;;;;4.82;3.70;;;;;;;16.44;52.26;97023.06;6322404;28;20036;-69
2023/09/30 09:49:55;;;;;;;4.40;3.28;;;;;;;16.47;51.87;97020.16;6322180;28;20032;-69
2023/09/30 09:53:02;;;;;;;6.50;3.90;;;;;;;16.51;51.31;97024.25;6322296;28;20039;-69
2023/09/30 09:56:13;;;;;;;8.10;4.80;;;;;;;16.83;50.65;97024.09;6322085;28;20185;-69
2023/09/30 09:59:18;;;;;;;18.50;9.38;;;;;;;17.33;49.16;97025.94;6321556;28;20054;-69
2023/09/30 10:02:21;;;;;;;18.55;9.45;;;;;;;17.75;48.21;97025.69;6321795;28;20157;-69
2023/09/30 10:05:27;;;;;;;10.20;5.63;;;;;;;17.67;48.97;97030.84;6321111;28;20052;-70
2023/09/30 10:08:50;;;;;;;9.75;4.93;;;;;;;17.21;49.12;97027.88;6320915;28;20417;-70
2023/09/30 10:12:00;;;;;;;12.38;5.22;;;;;;;16.50;50.63;97033.19;6321830;28;20123;-70
2023/09/30 10:15:27;;;;;;;11.48;6.45;;;;;;;16.15;51.50;97044.16;6321775;28;20040;-69
2023/09/30 10:18:28;;;;;;;11.77;6.60;;;;;;;15.98;52.05;97045.56;6321246;28;20056;-70
2023/09/30 10:21:33;;;;;;;17.02;9.25;;;;;;;15.98;51.91;97042.09;6321349;28;20055;-69
2023/09/30 10:24:37;;;;;;;18.30;8.82;;;;;;;16.34;50.88;97054.06;6320851;28;20059;-68
2023/09/30 10:27:39;;;;;;;8.52;4.68;;;;;;;16.60;48.95;97039.38;6321032;28;20054;-69
2023/09/30 10:31:13;;;;;;;8.75;3.92;;;;;;;16.91;48.47;97054.50;6321506;28;20047;-69
2023/09/30 10:34:24;;;;;;;4.70;2.70;;;;;;;17.08;46.85;97053.03;6303486;28;20047;-69
2023/09/30 10:37:28;;;;;;;7.45;3.60;;;;;;;17.34;46.22;97058.69;6321416;28;20447;-72
2023/09/30 10:40:34;;;;;;;7.63;4.05;;;;;;;17.64;45.51;97055.09;6320125;28;20052;-70
2023/09/30 10:43:40;;;;;;;8.32;4.40;;;;;;;18.00;45.40;97050.06;6320899;28;20047;-70
2023/09/30 10:46:43;;;;;;;7.28;4.03;;;;;;;18.05;44.29;97053.97;6320390;28;20052;-69
2023/09/30 10:49:46;;;;;;;10.00;4.82;;;;;;;18.13;44.67;97061.25;6320661;28;20040;-70
2023/09/30 10:52:51;;;;;;;12.80;5.00;;;;;;;18.13;44.58;97059.44;6320709;28;20043;-70
2023/09/30 10:55:57;;;;;;;7.25;3.90;;;;;;;18.11;44.39;97053.41;6320557;28;20450;-71
2023/09/30 10:59:00;;;;;;;9.48;4.80;;;;;;;18.19;44.56;97068.69;6321045;28;20032;-70
2023/09/30 11:02:17;;;;;;;9.38;4.60;;;;;;;18.08;44.94;97058.19;6320600;28;20063;-70
2023/09/30 11:05:21;;;;;;;8.20;5.07;;;;;;;17.80;45.65;97063.38;6319714;28;20055;-69
2023/09/30 11:08:32;;;;;;;9.38;4.95;;;;;;;17.64;46.55;97061.25;6320319;28;20047;-70
2023/09/30 11:11:43;;;;;;;10.23;4.85;;;;;;;17.63;47.14;97072.00;6319035;28;20505;-70
2023/09/30 11:14:45;;;;;;;8.48;5.38;;;;;;;17.88;46.93;97068.00;6319920;28;20088;-70
2023/09/30 11:17:50;;;;;;;8.30;4.90;;;;;;;18.06;46.46;97070.78;6318575;28;20044;-70
2023/09/30 11:21:06;;;;;;;7.32;4.40;;;;;;;18.10;47.24;97085.50;6319926;28;20040;-70
2023/09/30 11:24:08;;;;;;;12.02;5.68;;;;;;;17.93;46.95;97077.25;6320959;28;20069;-69
2023/09/30 11:27:10;;;;;;;8.40;5.18;;;;;;;17.70;47.41;97073.16;6319110;28;20055;-69
2023/09/30 11:30:17;;;;;;;6.60;4.68;;;;;;;17.81;47.01;97062.41;6320081;28;20636;-70
2023/09/30 11:33:24;;;;;;;7.15;3.85;;;;;;;18.71;45.79;97087.81;6319831;28;20051;-70
2023/09/30 11:36:28;;;;;;;6.03;4.20;;;;;;;19.08;44.79;97081.66;6319957;28;20512;-70
2023/09/30 11:39:33;;;;;;;7.25;4.30;;;;;;;19.47;43.82;97089.44;6319394;28;20040;-69
2023/09/30 11:42:34;;;;;;;6.03;4.43;;;;;;;21.07;40.71;97080.44;6319142;28;20059;-69
2023/09/30 11:45:36;;;;;;;6.45;4.55;;;;;;;21.58;38.73;97085.84;6317576;28;20413;-69
2023/09/30 11:48:59;;;;;;;12.70;8.25;;;;;;;21.07;38.68;97090.28;6319212;28;20540;-69
2023/09/30 11:52:02;;;;;;;;;;;;;;;20.76;40.51;97097.97;6319820;28;20039;-68
2023/09/30 11:55:07;;;;;;;10.38;6.22;;;;;;;19.72;40.15;97099.41;6319185;28;19920;-68
2023/09/30 11:58:15;;;;;;;12.18;4.28;;;;;;;18.59;42.03;97099.59;6319320;28;20043;-68
2023/09/30 12:01:16;;;;;;;4.63;3.45;;;;;;;17.62;43.41;97094.28;6319144;28;20040;-69
2023/09/30 12:04:21;;;;;;;4.97;3.47;;;;;;;16.73;44.36;97062.22;6317606;28;20056;-69
2023/09/30 12:07:28;;;;;;;3.55;2.78;;;;;;;16.54;44.68;97103.66;6318335;28;20502;-70
2023/09/30 12:10:30;;;;;;;4.38;2.55;;;;;;;16.04;45.91;97098.13;6318700;28;20044;-70
2023/09/30 12:13:34;;;;;;;4.53;3.38;;;;;;;15.81;46.81;97093.91;6318401;28;20521;-71
2023/09/30 12:16:38;;;;;;;;;;;;;;;15.80;46.89;97098.38;6319243;28;20044;-69
2023/09/30 12:19:39;;;;;;;10.15;4.68;;;;;;;15.65;47.84;97110.19;6318670;28;19924;-70
2023/09/30 12:22:41;;;;;;;9.77;5.53;;;;;;;15.55;48.96;97107.47;6318100;28;20044;-71
2023/09/30 12:25:46;;;;;;;12.75;5.80;;;;;;;15.53;49.74;97112.03;6317939;28;20142;-69
2023/09/30 12:28:48;;;;;;;11.35;6.03;;;;;;;15.52;49.96;97099.75;6318639;28;20488;-70
2023/09/30 12:31:52;;;;;;;7.93;5.35;;;;;;;15.48;49.85;97114.22;6317431;28;20517;-70
2023/09/30 12:34:56;;;;;;;8.50;4.85;;;;;;;15.37;50.08;97116.88;6318792;28;20107;-69
2023/09/30 12:37:59;;;;;;;7.03;5.35;;;;;;;15.40;50.06;97122.81;6318051;28;20043;-69
2023/09/30 12:41:00;;;;;;;8.82;5.43;;;;;;;15.37;50.19;97124.84;6318600;28;20052;-69
2023/09/30 12:44:02;;;;;;;8.88;4.90;;;;;;;15.33;49.81;97123.41;6318218;28;20040;-69
2023/09/30 12:47:04;;;;;;;5.90;4.18;;;;;;;15.31;50.19;97133.28;6318072;28;20051;-69
2023/09/30 12:50:09;;;;;;;7.20;4.40;;;;;;;15.21;50.45;97128.72;6318587;28;20040;-69
2023/09/30 12:53:17;;;;;;;11.93;5.47;;;;;;;15.03;51.21;97136.34;6318644;28;20520;-69
2023/09/30 12:56:24;;;;;;;8.70;4.80;;;;;;;14.81;52.02;97137.16;6318530;28;20048;-69
2023/09/30 12:59:27;;;;;;;7.50;4.60;;;;;;;14.60;52.55;97139.66;6317822;28;20395;-69
2023/09/30 13:02:29;;;;;;;;;;;;;;;14.38;52.50;97135.16;6318458;28;20044;-69
2023/09/30 13:05:30;;;;;;;7.45;3.92;;;;;;;14.11;53.34;97148.66;6316149;28;19967;-69
2023/09/30 13:08:33;;;;;;;8.60;4.38;;;;;;;13.81;54.44;97141.16;6318368;28;20052;-69
2023/09/30 13:11:39;;;;;;;7.95;4.25;;;;;;;13.61;55.02;97149.72;6317731;28;20051;-69
2023/09/30 13:14:43;;;;;;;7.13;4.40;;;;;;;13.37;55.82;97141.78;6317759;28;20418;-69
2023/09/30 13:17:49;;;;;;;5.47;4.15;;;;;;;13.21;56.64;97152.56;6322144;28;20055;-69
2023/09/30 13:20:54;;;;;;;8.15;4.53;;;;;;;13.01;57.32;97154.81;6322552;28;20432;-70
2023/09/30 13:23:55;;;;;;;7.60;4.35;;;;;;;12.77;58.01;97159.19;6322007;28;20039;-69
2023/09/30 13:27:00;;;;;;;9.05;3.95;;;;;;;12.53;58.67;97156.41;6322851;28;20043;-69
2023/09/30 13:30:04;;;;;;;8.80;4.30;;;;;;;12.40;59.51;97172.25;6322632;28;20186;-69
2023/09/30 13:33:09;;;;;;;5.43;4.38;;;;;;;12.32;59.74;97175.41;6321966;28;20572;-69
2023/09/30 13:36:17;;;;;;;9.68;4.68;;;;;;;12.23;59.97;97175.16;6322412;28;20044;-69
2023/09/30 13:39:21;;;;;;;8.70;4.55;;;;;;;12.19;60.35;97178.94;6321847;28;20059;-69
2023/09/30 13:42:25;;;;;;;10.63;5.22;;;;;;;12.03;61.04;97182.63;6322587;28;20049;-69
2023/09/30 13:45:28;;;;;;;;;;;;;;;11.91;60.25;97186.88;6322293;28;20429;-69
2023/09/30 13:48:37;;;;;;;6.13;4.78;;;;;;;11.82;61.24;97194.50;6323274;28;19939;-69
2023/09/30 13:51:41;;;;;;;7.90;4.43;;;;;;;11.72;61.63;97189.00;6324614;28;20040;-68
2023/09/30 13:54:43;;;;;;;7.38;5.03;;;;;;;11.72;62.02;97206.59;6325042;28;20040;-69
2023/09/30 13:57:46;;;;;;;7.63;5.10;;;;;;;11.72;62.13;97206.59;6324287;28;20043;-69
2023/09/30 14:00:52;;;;;;;9.75;5.00;;;;;;;11.72;62.37;97209.22;6321893;28;20048;-68
2023/09/30 14:03:58;;;;;;;8.38;4.30;;;;;;;11.72;62.50;97209.22;6322280;28;20044;-68
2023/09/30 14:07:02;;;;;;;7.30;4.35;;;;;;;11.81;62.89;97200.75;6322182;28;20143;-69
2023/09/30 14:10:05;;;;;;;8.32;5.07;;;;;;;11.83;63.13;97204.09;6321884;28;20486;-70
2023/09/30 14:13:09;;;;;;;8.50;4.82;;;;;;;11.87;63.39;97210.91;6321478;28;20036;-69
2023/09/30 14:16:12;;;;;;;;;;;;;;;11.86;62.96;97210.09;6304068;28;20147;-69
2023/09/30 14:19:16;;;;;;;8.55;5.75;;;;;;;11.76;63.95;97208.09;6321486;28;19921;-69
2023/09/30 14:22:19;;;;;;;7.07;5.47;;;;;;;11.64;64.55;97210.56;6321394;28;20047;-69
2023/09/30 14:25:26;;;;;;;8.98;5.57;;;;;;;11.51;65.04;97217.56;6321924;28;20047;-69
2023/09/30 14:28:31;;;;;;;9.55;5.68;;;;;;;11.37;65.56;97217.56;6320227;28;20558;-70